Relevés horaires Beauvechain (Belgique)


Relevés horaires à Beauvechain - Mercredi 05 Juill. 2017
Heure UTC1 Température [°C] Vent [km/h] Hum. [%] Pres.4 [hPa] Visi. [Km] Nébu. [octa] Préc.5 [mm] Cond.
2m. Res. Ros. Dir.2 Vit. Moy. Raf.3
23:00 16.3 16.3 14.1 N 3.7 -- 3.7 87 1019.2(0.6/3h) 20 -- -- --
22:00 18.2 18.2 14.4 NNO 1.9 -- 5.6 78 1019.1(1.0/3h) 20 -- -- --
21:00 19.2 19.2 14.8 N 3.7 -- 9.3 76 1018.7(1.2/3h) 20 -- -- --
20:00 20.7 20.7 15.3 N 3.7 -- 9.3 71 1018.3(0.8/3h) 20 -- -- --
19:00 23.2 23.2 15.0 N 5.6 -- 9.3 60 1017.7(0.2/3h) 20 -- -- --
18:00 25.5 25.5 12.9 N 3.7 -- 11.1 46 1017.2(-0.3/3h) 20 -- -- --
17:00 26.2 26.2 13.3 NO 3.7 -- 9.3 45 1017.2(-0.5/3h) 20 -- -- --
16:00 26.1 26.1 13.1 NO 5.6 -- 9.3 45 1017.5(0.0/3h) 25 3/8 -- --
15:00 26.4 26.4 12.8 N 3.7 -- 11.1 43 1017.5(-0.3/3h) 25 3/8 -- --
14:00 25.9 25.9 12.9 O 3.7 -- 9.3 45 1017.8(-0.4/3h) 25 3/8 -- --
13:00 25.4 25.4 14.5 NNO 1.9 -- 11.1 51 1017.6(-1.1/3h) 20 4/8 -- --
12:00 25.3 25.3 15.5 NO 5.6 -- 9.3 55 1018(-0.5/3h) 20 4/8 -- --
11:00 24.0 24.0 14.6 NNO 1.9 -- 9.3 56 1018.3(-0.2/3h) 16 4/8 -- --
10:00 23.3 23.3 15.2 O 3.7 -- 7.4 60 1018.7(0.0/3h) 16 4/8 -- --
09:00 22.0 22.0 15.6 NNO 1.9 -- 5.6 67 1018.7(0.4/3h) 9 4/8 -- --
08:00 20.6 20.6 15.9 NNO 1.9 -- 5.6 74 1018.7(0.5/3h) 7 1/8 -- --
07:00 18.3 18.3 15.7 NNO 1.9 -- 5.6 85 1018.8(0.8/3h) 6 1/8 -- --
06:00 17.0 17.0 14.9 O 3.7 -- 3.7 87 1018.8(0.4/3h) 10 2/8 -- --
05:00 16.2 16.2 13.9 NNO 1.9 -- 3.7 86 1018.5(0.2/3h) 15 2/8 -- --
04:00 15.5 15.5 13.4 NNO 1.9 -- 3.7 87 1018.2(-0.4/3h) 15 2/8 -- --
03:00 14.6 14.6 13.3 NNO 1.9 -- 1.9 92 1018.2(-0.5/3h) 15 -- -- --
02:00 16.2 16.2 13.0 NNO 1.9 -- 1.9 81 1018.2(-0.7/3h) 20 -- -- --
01:00 15.1 15.1 12.9 NNO 1.9 -- 1.9 87 1018.7(-0.6/3h) 16 -- -- --
00:00 18.2 18.2 13.0 NNO 1.9 -- 3.7 72 1018.7(-0.5/3h) 20 -- -- --

1 Coordinated Universal Time. Actuellement il est 22:00 locale et 20:00 UTC.

2 Le vent souffle depuis la direction indiquée vers la direction oposée.

3 Les rafales max. sont disponible 40 min après l'heure du relevé.

4 Pour les stations d'altitude (plus de 600m) le géopotentiel du niveau le plus proche de la pression obligatoire est indiqué.

5 Les stations disposant d'un diffuseur peuvent indiquer "trace". Cela signifie que des précipitations ont touchés le sol mais que la quantité est inférieure à 0.1 mm.

Récapitulatif de la journée
Température [°C] Vent [km/h] Ensoleillement4 [h] Precipitations totale5 [mm] Pression [Hpa]
Min1 Max.2 Moy.3 Max. Min Max.
14.3 27.1 0 11.1 0 h 0 min 0 1017.2 1019.2

1 Température minimale relevée entre 18:00 UTC la veille et 18:00 UTC le jour donné.

2 Température maximale relevée entre 06:00 UTC le jour donné et 06:00 UTC le lendemain.

3 Vent moyen de la journée basé sur les relevés horaires.

4 Ensoleillement en heures relevé entre 06:00 UTC la veille et 06:00 UTC le jour donné.

5 Précipitations totales tombées entre 06:00 UTC la jour donné et 06:00 UTC le lendemain.

Graphiques horaires